createdAt,value
2023-05-15T00:02:02.301Z,75.47
2023-05-15T00:04:29.202Z,75.80
2023-05-15T00:06:56.158Z,74.91
2023-05-15T00:09:23.094Z,75.97
2023-05-15T00:11:51.411Z,76.96
2023-05-15T00:14:18.963Z,75.46
2023-05-15T00:16:45.826Z,74.96
2023-05-15T00:19:12.823Z,76.69
2023-05-15T00:21:39.802Z,76.28
2023-05-15T00:24:06.685Z,75.21
2023-05-15T00:26:33.645Z,76.81
2023-05-15T00:29:00.695Z,76.53
2023-05-15T00:31:27.568Z,77.55
2023-05-15T00:33:54.479Z,77.71
2023-05-15T00:36:22.299Z,76.66
2023-05-15T00:38:49.102Z,77.38
2023-05-15T00:41:16.838Z,78.00
2023-05-15T00:43:44.125Z,76.95
2023-05-15T00:46:13.458Z,76.84
2023-05-15T00:48:42.302Z,77.77
2023-05-15T00:51:10.062Z,76.78
2023-05-15T00:53:38.865Z,78.22
2023-05-15T00:56:07.263Z,79.17
2023-05-15T00:58:34.466Z,79.58
2023-05-15T01:01:01.283Z,78.21
2023-05-15T01:03:28.979Z,79.17
2023-05-15T01:05:56.131Z,80.29
2023-05-15T01:08:50.015Z,80.19
2023-05-15T01:11:18.043Z,79.35
2023-05-15T01:13:45.037Z,80.25
2023-05-15T01:16:12.150Z,81.93
2023-05-15T01:18:39.110Z,80.36
2023-05-15T01:21:38.606Z,79.94
2023-05-15T01:24:23.657Z,78.48
2023-05-15T01:27:02.384Z,78.51
2023-05-15T01:29:42.899Z,79.97
2023-05-15T01:32:19.142Z,80.81
2023-05-15T01:34:58.243Z,81.06
2023-05-15T01:37:28.829Z,79.99
2023-05-15T01:40:02.729Z,80.42
2023-05-15T01:42:36.346Z,81.19
2023-05-15T01:45:08.432Z,80.72
2023-05-15T01:47:46.764Z,80.77
2023-05-15T01:50:16.232Z,79.93
2023-05-15T01:52:50.960Z,80.67
2023-05-15T01:55:20.832Z,81.58
2023-05-15T01:57:50.614Z,81.50
2023-05-15T02:00:18.748Z,81.49
2023-05-15T02:02:47.199Z,81.57
2023-05-15T02:05:15.016Z,82.01
2023-05-15T02:07:46.054Z,81.99
2023-05-15T02:10:13.559Z,81.24
2023-05-15T02:12:41.906Z,81.29
2023-05-15T02:15:10.822Z,81.25
2023-05-15T02:17:38.446Z,80.75
2023-05-15T02:20:08.835Z,80.55
2023-05-15T02:22:36.030Z,80.17
2023-05-15T02:25:06.061Z,80.64
2023-05-15T02:27:55.266Z,80.70
2023-05-15T02:31:09.570Z,80.96
2023-05-15T02:33:46.666Z,81.85
2023-05-15T02:36:21.020Z,82.13
2023-05-15T02:38:50.839Z,81.58
2023-05-15T02:41:18.503Z,81.18
2023-05-15T02:43:49.309Z,81.22
2023-05-15T02:46:18.037Z,81.63
2023-05-15T02:48:46.143Z,81.57
2023-05-15T02:51:13.899Z,82.17
2023-05-15T02:53:42.379Z,82.01
2023-05-15T02:56:10.319Z,82.62
2023-05-15T02:58:39.006Z,82.76
2023-05-15T03:01:06.339Z,82.01
2023-05-15T03:03:33.276Z,82.55
2023-05-15T03:06:03.255Z,82.67
2023-05-15T03:08:30.393Z,82.16
2023-05-15T03:10:58.174Z,83.28
2023-05-15T03:13:25.150Z,82.61
2023-05-15T03:15:53.062Z,83.13
2023-05-15T03:18:19.899Z,83.68
2023-05-15T03:20:49.362Z,83.21
2023-05-15T03:23:16.364Z,83.21
2023-05-15T03:25:43.301Z,83.14
2023-05-15T03:28:10.261Z,82.60
2023-05-15T03:30:37.396Z,83.17
2023-05-15T03:33:04.402Z,82.64
2023-05-15T03:35:32.727Z,81.98
2023-05-15T03:37:59.805Z,82.25
2023-05-15T03:40:26.579Z,83.04
2023-05-15T03:42:53.797Z,83.25
2023-05-15T03:45:21.541Z,82.71
2023-05-15T03:47:48.910Z,83.26
2023-05-15T03:50:16.053Z,81.36
2023-05-15T03:52:43.012Z,82.79
2023-05-15T03:55:10.065Z,82.45
2023-05-15T03:57:37.207Z,83.03
2023-05-15T04:00:10.336Z,82.82
2023-05-15T04:02:38.374Z,82.72
2023-05-15T04:05:06.009Z,83.28
2023-05-15T04:07:36.895Z,83.33
2023-05-15T04:10:04.655Z,82.02
2023-05-15T04:12:35.914Z,80.88
2023-05-15T04:15:16.686Z,80.89
2023-05-15T04:17:44.938Z,79.88
2023-05-15T04:20:15.148Z,78.66
2023-05-15T04:22:43.765Z,80.04
2023-05-15T04:25:11.756Z,79.71
2023-05-15T04:27:39.077Z,77.62
2023-05-15T04:30:18.642Z,73.57
2023-05-15T04:32:49.009Z,70.91
2023-05-15T04:35:16.185Z,66.48
2023-05-15T04:37:45.973Z,62.67
2023-05-15T04:40:15.146Z,58.63
2023-05-15T04:42:42.372Z,55.34
2023-05-15T04:45:09.554Z,52.61
2023-05-15T04:47:36.866Z,50.67
2023-05-15T04:50:04.210Z,48.19
2023-05-15T04:52:31.182Z,45.89
2023-05-15T04:54:58.439Z,44.68
2023-05-15T04:57:26.078Z,43.12
2023-05-15T04:59:53.205Z,41.63
2023-05-15T05:02:23.400Z,40.03
2023-05-15T05:04:50.872Z,39.55
2023-05-15T05:07:17.924Z,38.33
2023-05-15T05:09:45.308Z,37.65
2023-05-15T05:12:12.221Z,36.02
2023-05-15T05:14:40.899Z,34.64
2023-05-15T05:17:08.348Z,33.08
2023-05-15T05:19:35.404Z,31.27
2023-05-15T05:22:05.577Z,31.38
2023-05-15T05:24:33.086Z,30.22
2023-05-15T05:27:00.602Z,29.57
2023-05-15T05:29:27.868Z,27.23
2023-05-15T05:31:55.000Z,27.96
2023-05-15T05:34:22.484Z,28.35
2023-05-15T05:36:50.246Z,25.82
2023-05-15T05:39:17.665Z,26.00
2023-05-15T05:41:45.090Z,25.37
2023-05-15T05:44:12.092Z,23.80
2023-05-15T05:46:39.177Z,23.66
2023-05-15T05:49:06.236Z,24.34
2023-05-15T05:51:33.399Z,25.85
2023-05-15T05:54:00.258Z,26.25
2023-05-15T05:56:27.443Z,24.54
2023-05-15T05:58:54.784Z,23.48
2023-05-15T06:01:21.826Z,22.19
2023-05-15T06:03:48.977Z,20.88
2023-05-15T06:06:15.879Z,20.17
2023-05-15T06:08:42.817Z,19.57
2023-05-15T06:11:09.978Z,19.03
2023-05-15T06:13:37.248Z,19.55
2023-05-15T06:16:04.360Z,19.04
2023-05-15T06:18:31.389Z,19.27
2023-05-15T06:21:00.416Z,18.81
2023-05-15T06:23:28.066Z,17.95
2023-05-15T06:25:55.337Z,18.63
2023-05-15T06:28:22.238Z,18.99
2023-05-15T06:30:49.302Z,18.91
2023-05-15T06:33:16.174Z,16.88
2023-05-15T06:35:43.140Z,17.01
2023-05-15T06:38:12.282Z,16.40
2023-05-15T06:40:39.199Z,15.86
2023-05-15T06:43:06.330Z,15.73
2023-05-15T06:45:33.251Z,15.64
2023-05-15T06:48:01.824Z,15.53
2023-05-15T06:50:29.296Z,15.15
2023-05-15T06:52:56.174Z,14.45
2023-05-15T06:55:23.263Z,13.71
2023-05-15T06:57:50.654Z,13.69
2023-05-15T07:00:17.908Z,13.44
2023-05-15T07:02:44.777Z,12.82
2023-05-15T07:05:11.951Z,12.62
2023-05-15T07:07:39.202Z,12.27
2023-05-15T07:10:08.742Z,11.74
2023-05-15T07:12:35.586Z,11.66
2023-05-15T07:15:02.637Z,11.52
2023-05-15T07:17:31.846Z,11.45
2023-05-15T07:19:58.735Z,11.54
2023-05-15T07:22:28.733Z,10.74
2023-05-15T07:24:55.498Z,10.32
2023-05-15T07:27:22.599Z,11.26
2023-05-15T07:29:49.452Z,10.12
2023-05-15T07:32:16.339Z,9.92
2023-05-15T07:34:43.389Z,9.39
2023-05-15T07:37:10.361Z,9.29
2023-05-15T07:39:37.397Z,9.54
2023-05-15T07:42:04.452Z,9.36
2023-05-15T07:44:31.436Z,8.72
2023-05-15T07:47:02.562Z,8.69
2023-05-15T07:49:29.741Z,8.54
2023-05-15T07:51:56.755Z,8.58
2023-05-15T07:54:23.763Z,8.97
2023-05-15T07:56:50.625Z,8.75
2023-05-15T07:59:17.575Z,8.85
2023-05-15T08:01:44.453Z,8.54
2023-05-15T08:04:12.277Z,9.41
2023-05-15T08:06:39.899Z,9.73
2023-05-15T08:09:07.029Z,9.18
2023-05-15T08:11:33.849Z,9.11
2023-05-15T08:14:00.767Z,8.26
2023-05-15T08:16:28.220Z,7.97
2023-05-15T08:18:58.977Z,7.38
2023-05-15T08:21:26.117Z,7.56
2023-05-15T08:23:54.818Z,6.89
2023-05-15T08:26:21.992Z,6.59
2023-05-15T08:28:49.176Z,6.75
2023-05-15T08:31:16.160Z,5.30
2023-05-15T08:33:43.272Z,5.28
2023-05-15T08:36:10.338Z,5.98
2023-05-15T08:38:37.223Z,5.35
2023-05-15T08:41:11.248Z,5.21
2023-05-15T08:43:39.603Z,5.43
2023-05-15T08:46:07.657Z,5.00
2023-05-15T08:48:38.246Z,5.27
2023-05-15T08:51:10.310Z,5.21
2023-05-15T08:53:37.749Z,4.75
2023-05-15T08:56:05.110Z,4.34
2023-05-15T08:58:32.985Z,4.40
2023-05-15T09:01:00.485Z,4.32
2023-05-15T09:03:27.822Z,4.51
2023-05-15T09:05:55.409Z,3.98
2023-05-15T09:08:24.215Z,3.81
2023-05-15T09:10:53.036Z,3.83
2023-05-15T09:13:20.076Z,3.84
2023-05-15T09:15:48.443Z,4.03
2023-05-15T09:18:16.745Z,3.65
2023-05-15T09:20:43.753Z,3.28
2023-05-15T09:23:27.613Z,3.81
2023-05-15T09:25:57.043Z,3.55
2023-05-15T09:28:28.246Z,3.92
2023-05-15T09:30:59.596Z,3.65
2023-05-15T09:33:35.531Z,3.27
2023-05-15T09:36:03.735Z,2.95
2023-05-15T09:38:33.523Z,3.28
2023-05-15T09:41:07.585Z,3.27
2023-05-15T09:43:37.106Z,4.29
2023-05-15T09:46:04.037Z,3.54
2023-05-15T09:48:33.867Z,3.14
2023-05-15T09:51:01.436Z,4.04
2023-05-15T09:53:30.044Z,3.87
2023-05-15T09:55:57.152Z,3.29
2023-05-15T09:58:24.080Z,3.83
2023-05-15T10:00:50.858Z,3.63
2023-05-15T10:03:22.110Z,3.46
2023-05-15T10:05:49.258Z,3.57
2023-05-15T10:08:16.892Z,3.40
2023-05-15T10:10:45.103Z,4.01
2023-05-15T10:13:12.437Z,3.68
2023-05-15T10:15:40.098Z,3.47
2023-05-15T10:18:08.093Z,3.80
2023-05-15T10:20:38.293Z,4.55
2023-05-15T10:23:06.767Z,3.83
2023-05-15T10:25:59.450Z,3.60
2023-05-15T10:28:27.690Z,3.47
2023-05-15T10:30:57.928Z,3.71
2023-05-15T10:33:25.818Z,3.95
2023-05-15T10:35:53.691Z,4.04
2023-05-15T10:38:21.588Z,4.52
2023-05-15T10:40:49.039Z,3.92
2023-05-15T10:43:16.076Z,3.71
2023-05-15T10:45:44.361Z,3.88
2023-05-15T10:48:12.701Z,4.26
2023-05-15T10:50:40.090Z,4.51
2023-05-15T10:53:09.326Z,4.35
2023-05-15T10:55:37.047Z,4.60
2023-05-15T10:58:10.246Z,4.46
2023-05-15T11:00:45.082Z,4.17
2023-05-15T11:03:15.987Z,4.38
2023-05-15T11:06:11.376Z,4.21
2023-05-15T11:08:40.122Z,4.33
2023-05-15T11:11:07.138Z,5.84
2023-05-15T11:14:04.778Z,5.74
2023-05-15T11:16:54.706Z,6.37
2023-05-15T11:19:57.966Z,5.77
2023-05-15T11:22:39.127Z,6.41
2023-05-15T11:25:12.335Z,5.67
2023-05-15T11:27:46.597Z,7.59
2023-05-15T11:30:23.160Z,6.36
2023-05-15T11:32:59.110Z,6.42
2023-05-15T11:35:38.782Z,7.55
2023-05-15T11:38:16.883Z,6.45
2023-05-15T11:41:16.785Z,7.57
2023-05-15T11:43:43.720Z,8.08
2023-05-15T11:46:13.053Z,9.53
2023-05-15T11:48:41.785Z,12.77
2023-05-15T11:51:26.286Z,15.65
2023-05-15T11:53:54.876Z,17.46
2023-05-15T11:56:23.757Z,19.72
2023-05-15T11:58:52.117Z,20.12
2023-05-15T12:01:19.231Z,19.63
2023-05-15T12:03:49.314Z,19.36
2023-05-15T12:06:16.983Z,20.32
2023-05-15T12:08:44.388Z,21.74
2023-05-15T12:11:13.536Z,23.41
2023-05-15T12:13:40.622Z,22.52
2023-05-15T12:16:07.668Z,23.32
2023-05-15T12:18:35.002Z,24.61
2023-05-15T12:21:02.132Z,24.30
2023-05-15T12:23:29.089Z,25.37
2023-05-15T12:26:01.143Z,25.54
2023-05-15T12:28:29.517Z,24.80
2023-05-15T12:30:57.750Z,26.68
2023-05-15T12:33:25.291Z,27.51
2023-05-15T12:35:59.935Z,28.00
2023-05-15T12:38:29.161Z,27.57
2023-05-15T12:40:57.413Z,27.71
2023-05-15T12:43:26.215Z,28.87
2023-05-15T12:45:54.857Z,27.11
2023-05-15T12:48:22.545Z,27.80
2023-05-15T12:50:50.419Z,27.41
2023-05-15T12:53:18.124Z,27.51
2023-05-15T12:55:47.080Z,28.14
2023-05-15T12:58:16.084Z,27.46
2023-05-15T13:00:46.479Z,27.12
2023-05-15T13:03:14.315Z,27.51
2023-05-15T13:05:46.003Z,27.03
2023-05-15T13:08:18.162Z,27.02
2023-05-15T13:10:46.557Z,28.12
2023-05-15T13:13:13.973Z,27.92
2023-05-15T13:15:43.933Z,27.07
2023-05-15T13:18:15.749Z,26.61
2023-05-15T13:20:43.828Z,26.51
2023-05-15T13:23:12.414Z,27.15
2023-05-15T13:25:39.261Z,27.43
2023-05-15T13:28:07.716Z,27.90
2023-05-15T13:30:35.865Z,29.19
2023-05-15T13:33:03.175Z,28.91
2023-05-15T13:35:30.198Z,29.40
2023-05-15T13:37:57.526Z,29.03
2023-05-15T13:40:24.789Z,28.83
2023-05-15T13:42:51.872Z,29.55
2023-05-15T13:45:19.082Z,31.00
2023-05-15T13:47:46.103Z,31.34
2023-05-15T13:50:15.422Z,31.92
2023-05-15T13:52:43.973Z,33.99
2023-05-15T13:55:11.606Z,34.61
2023-05-15T13:57:42.851Z,34.77
2023-05-15T14:00:15.295Z,34.95
2023-05-15T14:02:44.008Z,35.55
2023-05-15T14:05:13.113Z,36.35
2023-05-15T14:07:40.692Z,37.45
2023-05-15T14:10:08.483Z,38.04
2023-05-15T14:12:36.274Z,38.60
2023-05-15T14:15:03.423Z,37.93
2023-05-15T14:17:32.620Z,37.78
2023-05-15T14:19:59.597Z,38.45
2023-05-15T14:22:26.593Z,38.30
2023-05-15T14:24:53.724Z,37.26
2023-05-15T14:27:21.156Z,36.89
2023-05-15T14:29:49.454Z,36.66
2023-05-15T14:32:17.385Z,36.21
2023-05-15T14:34:44.654Z,37.14
2023-05-15T14:37:11.862Z,38.37
2023-05-15T14:39:39.086Z,37.49
2023-05-15T14:42:06.616Z,37.92
2023-05-15T14:44:34.294Z,39.48
2023-05-15T14:47:10.590Z,38.75
2023-05-15T14:49:37.981Z,39.06
2023-05-15T14:52:07.552Z,39.52
2023-05-15T14:54:35.984Z,39.79
2023-05-15T14:57:03.861Z,38.61
2023-05-15T14:59:31.567Z,38.43
2023-05-15T15:01:58.731Z,38.07
2023-05-15T15:04:26.924Z,37.71
2023-05-15T15:06:57.181Z,37.98
2023-05-15T15:09:26.414Z,36.75
2023-05-15T15:11:54.673Z,36.62
2023-05-15T15:14:21.554Z,36.16
2023-05-15T15:16:48.659Z,35.63
2023-05-15T15:19:18.186Z,36.93
2023-05-15T15:21:46.960Z,37.31
2023-05-15T15:24:14.011Z,38.32
2023-05-15T15:26:41.532Z,39.71
2023-05-15T15:29:08.585Z,40.58
2023-05-15T15:31:35.981Z,41.55
2023-05-15T15:34:05.302Z,41.57
2023-05-15T15:36:33.080Z,42.77
2023-05-15T15:38:59.968Z,41.71
2023-05-15T15:41:29.968Z,41.54
2023-05-15T15:43:56.875Z,42.10
2023-05-15T15:46:23.833Z,42.27
2023-05-15T15:48:51.238Z,42.69
2023-05-15T15:51:18.154Z,43.41
2023-05-15T15:53:45.313Z,44.35
2023-05-15T15:56:12.192Z,44.63
2023-05-15T15:58:39.011Z,44.95
2023-05-15T16:01:06.141Z,45.49
2023-05-15T16:03:33.691Z,45.74
2023-05-15T16:06:00.700Z,46.05
2023-05-15T16:08:27.981Z,46.65
2023-05-15T16:10:55.311Z,47.20
2023-05-15T16:13:22.316Z,46.92
2023-05-15T16:15:49.297Z,46.66
2023-05-15T16:18:16.992Z,47.14
2023-05-15T16:20:44.031Z,47.58
2023-05-15T16:23:15.217Z,49.18
2023-05-15T16:25:45.471Z,49.80
2023-05-15T16:28:12.398Z,50.41
2023-05-15T16:30:48.822Z,51.27
2023-05-15T16:33:18.234Z,51.84
2023-05-15T16:35:46.002Z,51.87
2023-05-15T16:38:13.643Z,52.74
2023-05-15T16:40:40.881Z,53.13
2023-05-15T16:43:08.027Z,53.59
2023-05-15T16:45:35.072Z,54.54
2023-05-15T16:48:02.197Z,54.82
2023-05-15T16:50:31.295Z,56.09
2023-05-15T16:52:58.426Z,55.92
2023-05-15T16:55:25.550Z,55.20
2023-05-15T16:57:52.407Z,54.82
2023-05-15T17:00:21.308Z,55.78
2023-05-15T17:02:49.069Z,55.52
2023-05-15T17:05:16.794Z,56.64
2023-05-15T17:07:44.814Z,55.90
2023-05-15T17:10:12.668Z,56.70
2023-05-15T17:12:40.115Z,56.71
2023-05-15T17:15:08.004Z,57.89
2023-05-15T17:17:35.310Z,58.51
2023-05-15T17:20:03.254Z,58.22
2023-05-15T17:22:30.718Z,58.78
2023-05-15T17:24:58.088Z,58.57
2023-05-15T17:27:25.304Z,59.40
2023-05-15T17:29:52.457Z,60.70
2023-05-15T17:32:19.761Z,61.06
2023-05-15T17:34:47.336Z,61.48
2023-05-15T17:37:14.653Z,61.75
2023-05-15T17:39:42.155Z,63.00
2023-05-15T17:42:08.984Z,62.95
2023-05-15T17:44:35.824Z,62.54
2023-05-15T17:47:02.841Z,63.29
2023-05-15T17:49:30.056Z,63.36
2023-05-15T17:51:57.137Z,64.37
2023-05-15T17:54:24.367Z,64.24
2023-05-15T17:56:51.466Z,66.09
2023-05-15T17:59:18.297Z,66.03
2023-05-15T18:01:45.530Z,66.04
2023-05-15T18:04:12.557Z,65.61
2023-05-15T18:06:39.514Z,66.17
2023-05-15T18:09:06.608Z,67.05
2023-05-15T18:11:33.625Z,66.82
2023-05-15T18:14:00.641Z,68.23
2023-05-15T18:16:28.359Z,67.99
2023-05-15T18:18:55.994Z,67.75
2023-05-15T18:21:22.957Z,68.79
2023-05-15T18:23:50.123Z,68.78
2023-05-15T18:26:17.292Z,68.86
2023-05-15T18:28:44.249Z,70.04
2023-05-15T18:31:11.245Z,69.57
2023-05-15T18:33:39.796Z,70.10
2023-05-15T18:36:07.737Z,69.54
2023-05-15T18:38:35.034Z,69.20
2023-05-15T18:41:03.170Z,69.81
2023-05-15T18:43:30.133Z,68.83
2023-05-15T18:45:57.199Z,70.21
2023-05-15T18:48:24.174Z,69.89
2023-05-15T18:50:53.091Z,70.89
2023-05-15T18:53:22.082Z,71.10
2023-05-15T18:55:49.263Z,70.53
2023-05-15T18:58:16.304Z,70.36
2023-05-15T19:00:43.373Z,70.93
2023-05-15T19:03:11.072Z,71.68
2023-05-15T19:05:38.160Z,71.43
2023-05-15T19:08:05.312Z,71.25
2023-05-15T19:10:32.280Z,71.47
2023-05-15T19:12:59.053Z,71.47
2023-05-15T19:15:26.729Z,72.02
2023-05-15T19:17:53.651Z,71.32
2023-05-15T19:20:21.147Z,72.19
2023-05-15T19:22:48.442Z,70.79
2023-05-15T19:25:15.485Z,71.31
2023-05-15T19:27:42.499Z,71.78
2023-05-15T19:30:10.218Z,71.46
2023-05-15T19:32:37.439Z,71.25
2023-05-15T19:35:05.867Z,71.00
2023-05-15T19:37:32.722Z,71.86
2023-05-15T19:39:59.524Z,71.08
2023-05-15T19:42:26.785Z,71.90
2023-05-15T19:44:53.755Z,71.22
2023-05-15T19:47:21.072Z,70.76
2023-05-15T19:49:48.056Z,71.21
2023-05-15T19:52:16.536Z,71.98
2023-05-15T19:54:44.369Z,71.32
2023-05-15T19:57:11.399Z,70.83
2023-05-15T19:59:38.404Z,71.53
2023-05-15T20:02:09.370Z,70.61
2023-05-15T20:04:37.289Z,70.40
2023-05-15T20:07:04.556Z,70.16
2023-05-15T20:09:31.400Z,71.93
2023-05-15T20:11:58.536Z,71.53
2023-05-15T20:14:25.490Z,71.23
2023-05-15T20:16:53.530Z,70.68
2023-05-15T20:19:23.364Z,71.56
2023-05-15T20:21:52.876Z,72.66
2023-05-15T20:24:19.875Z,72.00
2023-05-15T20:26:46.662Z,71.63
2023-05-15T20:29:13.709Z,72.23
2023-05-15T20:31:40.781Z,71.71
2023-05-15T20:34:08.695Z,71.84
2023-05-15T20:36:39.023Z,71.79
2023-05-15T20:39:07.666Z,72.09
2023-05-15T20:41:34.792Z,71.55
2023-05-15T20:44:01.903Z,71.97
2023-05-15T20:46:30.236Z,71.05
2023-05-15T20:48:57.784Z,71.72
2023-05-15T20:51:25.037Z,70.46
2023-05-15T20:53:52.012Z,71.42
2023-05-15T20:56:19.310Z,70.86
2023-05-15T20:58:46.637Z,70.11
2023-05-15T21:01:13.831Z,71.30
2023-05-15T21:03:41.199Z,71.11
2023-05-15T21:06:08.994Z,71.91
2023-05-15T21:08:36.131Z,72.39
2023-05-15T21:11:02.971Z,71.59
2023-05-15T21:13:29.972Z,72.04
2023-05-15T21:15:56.866Z,72.60
2023-05-15T21:18:24.069Z,73.05
2023-05-15T21:20:51.128Z,72.07
2023-05-15T21:23:18.450Z,73.01
2023-05-15T21:25:45.441Z,72.33
2023-05-15T21:28:12.295Z,71.71
2023-05-15T21:30:39.338Z,71.31
2023-05-15T21:33:06.546Z,70.88
2023-05-15T21:35:33.493Z,71.37
2023-05-15T21:38:00.714Z,71.66
2023-05-15T21:40:28.000Z,71.70
2023-05-15T21:42:54.877Z,71.35
2023-05-15T21:45:22.110Z,70.97
2023-05-15T21:47:49.730Z,71.46
2023-05-15T21:50:16.549Z,71.49
2023-05-15T21:52:46.275Z,71.81
2023-05-15T21:55:13.128Z,71.05
2023-05-15T21:57:39.917Z,71.00
2023-05-15T22:00:08.604Z,71.05
2023-05-15T22:02:37.055Z,70.44
2023-05-15T22:05:04.765Z,69.90
2023-05-15T22:07:31.728Z,70.38
2023-05-15T22:09:58.598Z,69.99
2023-05-15T22:12:25.443Z,70.12
2023-05-15T22:14:58.987Z,71.67
2023-05-15T22:17:29.394Z,70.94
2023-05-15T22:20:07.096Z,70.18
2023-05-15T22:22:35.252Z,70.80
2023-05-15T22:25:02.448Z,70.61
2023-05-15T22:27:29.354Z,70.31
2023-05-15T22:29:56.594Z,70.76
2023-05-15T22:32:23.640Z,71.36
2023-05-15T22:34:50.690Z,70.97
2023-05-15T22:37:17.478Z,70.55
2023-05-15T22:39:44.574Z,69.93
2023-05-15T22:42:11.589Z,69.56
2023-05-15T22:44:38.497Z,69.73
2023-05-15T22:47:05.690Z,69.97
2023-05-15T22:49:32.498Z,69.68
2023-05-15T22:51:59.742Z,70.40
2023-05-15T22:54:26.667Z,70.97
2023-05-15T22:56:54.348Z,70.70
2023-05-15T22:59:21.475Z,70.15
2023-05-15T23:01:49.422Z,70.77
2023-05-15T23:04:17.710Z,70.38
2023-05-15T23:06:44.946Z,70.70
2023-05-15T23:09:12.086Z,70.86
2023-05-15T23:11:39.089Z,70.32
2023-05-15T23:14:07.529Z,70.25
2023-05-15T23:16:34.478Z,70.23
2023-05-15T23:19:01.731Z,70.22
2023-05-15T23:21:28.834Z,70.44
2023-05-15T23:23:55.798Z,70.58
2023-05-15T23:26:22.690Z,70.94
2023-05-15T23:28:50.255Z,71.07
2023-05-15T23:31:17.394Z,70.28
2023-05-15T23:33:44.367Z,71.37
2023-05-15T23:36:11.264Z,70.61
2023-05-15T23:38:38.698Z,70.15
2023-05-15T23:41:06.018Z,70.36
2023-05-15T23:43:32.940Z,70.19
2023-05-15T23:45:59.844Z,69.99
2023-05-15T23:48:26.754Z,69.80
2023-05-15T23:50:53.719Z,69.81
2023-05-15T23:53:20.960Z,68.92
2023-05-15T23:55:48.021Z,69.90
2023-05-15T23:58:14.968Z,70.26
